Latest Weather Observations for Melbourne Airport

IDV60801

Issued at 5:31 pm EST Saturday 1 August 2015 (issued every 30 minutes, with the page automatically refreshed every 10 minutes)

About weather observations | Map of weather stations | Latest weather observations for VIC | Other Formats
Station Details ID: 086282 Name: MELBOURNE AIRPORT Lat: -37.67 Lon: 144.83 Height: 113.4 m
Data from the previous 72 hours. | See also: Recent months at Melbourne Airport
Date/Time
EST
Temp
°C
App
Temp
°C
Dew
Point
Rel
Hum
%
Delta-T
°C
Wind Press
QNH
hPa
Press
MSL
hPa
Rain
since 9 am
mm
Dir
 
Spd
km/h
Gust
km/h
Spd
kts
Gust
kts
01/05:00pm 9.2 5.6 0.3 53 3.6 WSW 9 11 5 6 1015.0 1015.2 0.0
01/04:30pm 9.6 5.2 0.2 52 3.8 WSW 13 15 7 8 1014.6 1014.8 0.0
01/04:00pm 10.1 6.0 2.1 57 3.4 SW 13 15 7 8 1014.7 1014.9 0.0
01/03:30pm 10.1 5.6 2.4 59 3.3 SSW 15 19 8 10 1014.8 1015.0 0.0
01/03:00pm 10.6 5.6 1.3 52 3.9 SW 17 26 9 14 1014.5 1014.7 0.0
01/02:30pm 10.6 6.7 1.0 51 4.0 SW 11 19 6 10 1014.1 1014.2 0.0
01/02:00pm 10.1 6.3 3.8 65 2.8 SSW 13 17 7 9 1014.3 1014.4 0.0
01/01:30pm 10.3 6.6 4.5 67 2.6 SSW 13 19 7 10 1014.1 1014.2 0.0
01/01:00pm 10.4 5.8 3.6 63 3.0 SW 17 20 9 11 1014.3 1014.4 0.0
01/12:30pm 9.9 6.2 4.3 68 2.5 SW 13 20 7 11 1014.3 1014.4 0.0
01/12:00pm 10.1 6.1 4.8 69 2.4 SW 15 20 8 11 1014.6 1014.8 0.0
01/11:30am 10.2 5.9 5.4 72 2.2 WSW 17 20 9 11 1014.8 1015.0 0.0
01/11:00am 9.6 5.4 5.9 78 1.7 WSW 17 22 9 12 1014.8 1015.0 0.0
01/10:30am 8.9 4.6 6.8 87 1.0 WSW 19 24 10 13 1014.7 1014.9 0.0
01/10:00am 9.0 4.0 6.4 84 1.2 WSW 22 30 12 16 1014.2 1014.3 0.0
01/09:30am 9.1 4.1 6.5 84 1.2 WSW 22 30 12 16 1013.5 1013.7 0.0
01/09:00am 9.0 4.0 6.4 84 1.2 WSW 22 35 12 19 1012.8 1013.0 0.4
01/08:30am 9.4 3.3 6.6 83 1.3 WNW 28 41 15 22 1012.6 1012.8 0.4
01/08:00am 9.8 3.4 6.8 81 1.4 N 30 35 16 19 1010.9 1011.0 0.2
01/07:30am 9.8 2.0 6.6 80 1.5 N 37 50 20 27 1010.0 1010.1 0.2
01/07:00am 8.8 1.6 6.0 82 1.3 N 33 39 18 21 1009.6 1009.7 0.0
01/06:30am 9.3 1.5 5.1 75 1.9 N 35 44 19 24 1009.6 1009.7 0.0
01/06:00am 9.3 1.1 4.9 74 2.0 N 37 52 20 28 1008.7 1008.9 0.0
01/05:30am 9.3 0.7 4.6 72 2.1 NNW 39 52 21 28 1008.5 1008.7 0.0
01/05:00am 9.4 -0.6 4.5 71 2.2 N 46 59 25 32 1008.5 1008.7 0.0
01/04:30am 9.2 1.3 4.3 71 2.2 N 35 50 19 27 1008.8 1009.0 0.0
01/04:00am 9.1 -0.6 4.1 71 2.2 N 44 59 24 32 1008.5 1008.7 0.0
01/03:30am 8.8 -0.8 3.5 69 2.3 N 43 57 23 31 1010.0 1010.1 0.0
01/03:00am 8.6 -3.1 3.3 69 2.3 N 54 74 29 40 1009.8 1009.9 0.0
01/02:30am 8.8 -3.3 3.0 67 2.5 N 56 72 30 39 1010.2 1010.3 0.0
01/02:00am 8.9 -2.5 2.8 65 2.6 N 52 69 28 37 1010.4 1010.5 0.0
01/01:30am 8.8 -1.9 2.7 65 2.6 N 48 63 26 34 1011.2 1011.3 0.0
01/01:00am 8.9 -1.0 1.7 60 3.0 N 43 61 23 33 1011.8 1012.0 0.0
01/12:30am 8.7 -0.5 1.4 60 3.0 N 39 52 21 28 1012.4 1012.6 0.0
01/12:00am 8.7 0.9 1.4 60 3.0 N 32 39 17 21 1013.0 1013.2 0.0
 
Date/Time
EST
Temp
°C
App
Temp
°C
Dew
Point
Rel
Hum
%
Delta-T
°C
Wind Press
QNH
hPa
Press
MSL
hPa
Rain
since 9 am
mm
Dir
 
Spd
km/h
Gust
km/h
Spd
kts
Gust
kts
31/11:30pm 9.3 1.3 0.7 55 3.5 N 32 50 17 27 1013.6 1013.8 0.0
31/11:00pm 9.5 1.5 0.7 54 3.6 N 32 44 17 24 1014.1 1014.3 0.0
31/10:30pm 9.6 2.0 0.8 54 3.6 N 30 43 16 23 1014.6 1014.8 0.0
31/10:13pm 9.6 2.4 0.8 54 3.6 NNW 28 46 15 25 1014.5 1014.7 0.0
31/10:00pm 9.2 2.5 1.2 57 3.3 N 26 35 14 19 1015.0 1015.2 0.0
31/09:30pm 8.6 0.6 1.9 63 2.8 N 33 44 18 24 1015.3 1015.5 0.0
31/09:00pm 9.1 -0.4 1.7 60 3.1 N 41 57 22 31 1014.2 1014.4 0.0
31/08:30pm 9.5 2.4 1.6 58 3.3 N 28 37 15 20 1015.2 1015.4 0.0
31/08:00pm 9.3 0.2 1.6 58 3.2 N 39 50 21 27 1014.9 1015.1 0.0
31/07:30pm 8.8 1.4 1.6 60 3.0 N 30 39 16 21 1015.4 1015.6 0.0
31/07:00pm 8.8 1.3 1.3 59 3.1 N 30 37 16 20 1015.9 1016.1 0.0
31/06:30pm 9.1 2.0 1.1 57 3.3 N 28 39 15 21 1016.1 1016.3 0.0
31/06:00pm 9.2 2.4 0.9 56 3.4 N 26 33 14 18 1015.7 1015.9 0.0
31/05:30pm 9.9 4.4 0.6 52 3.8 N 19 24 10 13 1015.7 1015.9 0.0
31/05:00pm 10.8 3.5 0.3 48 4.3 N 28 33 15 18 1015.7 1015.9 0.0
31/04:30pm 11.5 3.4 1.0 48 4.4 N 33 41 18 22 1015.7 1015.9 0.0
31/04:00pm 12.2 4.2 0.1 43 5.0 N 32 48 17 26 1016.1 1016.3 0.0
31/03:51pm 12.7 5.1 0.6 43 5.1 N 30 48 16 26 1016.2 1016.4 0.0
31/03:30pm 13.1 6.2 -0.1 40 5.5 NNW 26 33 14 18 1016.4 1016.6 0.0
31/03:00pm 13.3 6.8 0.2 40 5.5 N 24 37 13 20 1016.8 1017.0 0.0
31/02:30pm 13.4 6.9 0.3 40 5.5 N 24 33 13 18 1016.9 1017.1 0.0
31/02:00pm 13.1 6.6 0.2 41 5.4 N 24 33 13 18 1017.3 1017.5 0.0
31/01:30pm 12.4 7.9 -0.2 42 5.2 N 13 22 7 12 1018.2 1018.3 0.0
31/01:00pm 12.1 6.6 0.3 44 4.9 NNE 19 26 10 14 1018.9 1019.1 0.0
31/12:30pm 11.7 8.0 0.0 44 4.8 NNW 9 17 5 9 1019.6 1019.8 0.0
31/12:00pm 10.6 6.5 -0.3 47 4.4 WNW 11 15 6 8 1020.4 1020.6 0.0
31/11:30am 11.2 7.5 0.2 46 4.5 NW 9 15 5 8 1021.1 1021.3 0.0
31/11:00am 10.8 6.5 1.2 51 4.0 NW 13 19 7 10 1021.6 1021.8 0.0
31/10:30am 10.0 6.7 2.2 58 3.3 NW 9 15 5 8 1021.7 1021.9 0.0
31/10:00am 9.3 5.4 3.6 67 2.5 NNW 13 17 7 9 1021.4 1021.6 0.0
31/09:30am 7.9 3.5 2.9 70 2.1 NW 15 20 8 11 1021.6 1021.8 0.0
31/09:00am 7.2 3.6 2.9 74 1.8 NNW 11 15 6 8 1021.3 1021.5 1.0
31/08:30am 6.3 2.7 2.7 78 1.5 NNW 11 15 6 8 1021.3 1021.5 1.0
31/08:00am 5.3 1.2 2.1 80 1.3 NW 13 17 7 9 1021.2 1021.4 1.0
31/07:30am 4.2 0.0 1.9 85 0.9 NW 13 19 7 10 1020.9 1021.1 1.0
31/07:00am 4.5 0.7 1.7 82 1.1 NNW 11 17 6 9 1020.4 1020.6 1.0
31/06:30am 4.0 0.2 1.7 85 0.9 NNW 11 15 6 8 1020.1 1020.3 1.0
31/06:00am 5.0 0.5 2.3 83 1.1 NW 15 20 8 11 1019.9 1020.1 1.0
31/05:30am 3.9 -0.3 1.9 87 0.8 WNW 13 15 7 8 1019.6 1019.8 1.0
31/05:00am 3.7 -0.7 2.5 92 0.5 WNW 15 17 8 9 1019.5 1019.7 1.0
31/04:30am 3.6 -0.5 2.3 91 0.5 WNW 13 15 7 8 1019.2 1019.4 1.0
31/04:00am 4.1 -0.7 2.4 89 0.7 W 17 19 9 10 1019.0 1019.2 1.0
31/03:30am 4.1 -0.7 2.6 90 0.6 W 17 20 9 11 1018.9 1019.1 1.0
31/03:00am 4.6 -0.5 3.1 90 0.6 W 19 24 10 13 1019.0 1019.2 1.0
31/02:30am 4.7 0.0 3.2 90 0.6 WNW 17 20 9 11 1019.2 1019.4 1.0
31/02:00am 4.9 0.6 3.5 91 0.6 WNW 15 17 8 9 1019.1 1019.3 1.0
31/01:30am 5.2 0.2 3.5 89 0.7 W 19 24 10 13 1018.9 1019.1 1.0
31/01:00am 5.0 1.1 3.3 89 0.7 WNW 13 19 7 10 1018.7 1018.9 1.0
31/12:30am 5.3 1.4 3.6 89 0.7 WNW 13 15 7 8 1018.7 1018.9 1.0
31/12:00am 7.1 3.4 4.6 84 1.1 NW 13 17 7 9 1018.6 1018.8 1.0
 
Date/Time
EST
Temp
°C
App
Temp
°C
Dew
Point
Rel
Hum
%
Delta-T
°C
Wind Press
QNH
hPa
Press
MSL
hPa
Rain
since 9 am
mm
Dir
 
Spd
km/h
Gust
km/h
Spd
kts
Gust
kts
30/11:30pm 7.0 3.0 4.7 85 1.0 WNW 15 20 8 11 1018.4 1018.6 1.0
30/11:00pm 8.2 4.4 6.0 86 1.0 NW 15 19 8 10 1018.4 1018.6 1.0
30/10:30pm 8.5 4.9 6.6 88 0.9 WNW 15 24 8 13 1018.5 1018.7 1.0
30/10:06pm 8.6 3.4 5.7 82 1.3 W 22 32 12 17 1018.3 1018.4 0.8
30/10:00pm 8.6 3.1 5.7 82 1.3 WSW 24 33 13 18 1018.3 1018.4 0.8
30/09:30pm 8.9 3.8 6.1 82 1.3 NNW 22 33 12 18 1017.3 1017.5 0.2
30/09:00pm 9.4 1.2 5.0 74 2.0 NNW 37 50 20 27 1016.6 1016.8 0.0
30/08:30pm 9.4 0.0 5.2 75 1.9 N 44 61 24 33 1016.0 1016.2 0.0
30/08:00pm 9.5 0.2 4.8 72 2.1 N 43 57 23 31 1015.7 1015.9 0.0
30/07:30pm 9.6 -0.4 4.4 70 2.3 N 46 63 25 34 1015.4 1015.6 0.0
30/07:00pm 9.7 -0.8 3.5 65 2.7 N 48 63 26 34 1015.0 1015.2 0.0
30/06:30pm 9.9 -1.2 2.7 61 3.1 N 50 69 27 37 1014.2 1014.4 0.0
30/06:02pm 10.1 -1.3 2.7 60 3.2 N 52 72 28 39 1013.4 1013.6 0.0
30/06:00pm 10.1 -1.3 2.7 60 3.2 N 52 69 28 37 1013.4 1013.6 0.0
30/05:49pm 10.3 -1.9 2.4 58 3.4 N 56 74 30 40 1013.3 1013.5 0.0
30/05:30pm 10.3 -2.5 2.4 58 3.4 N 59 76 32 41 1012.5 1012.7 0.0
30/05:00pm 10.7 -2.9 2.0 55 3.7 N 63 87 34 47 1011.9 1012.1 0.0
30/04:33pm 11.1 -2.9 2.0 53 3.9 N 65 83 35 45 1011.9 1012.1 0.0
30/04:30pm 11.2 -3.2 1.8 52 4.0 N 67 83 36 45 1011.8 1012.0 0.0
30/04:00pm 10.8 -2.4 2.2 55 3.7 N 61 82 33 44 1012.2 1012.4 0.0
30/03:30pm 11.2 -1.2 1.5 51 4.1 N 56 78 30 42 1012.3 1012.5 0.0
30/03:01pm 11.3 -2.5 1.1 49 4.3 N 63 82 34 44 1013.2 1013.4 0.0
30/03:00pm 11.3 -2.9 1.1 49 4.3 N 65 82 35 44 1013.0 1013.2 0.0
30/02:30pm 11.0 -2.2 2.2 54 3.8 N 61 80 33 43 1013.4 1013.6 0.0
30/02:02pm 10.6 -2.6 2.2 56 3.6 N 61 80 33 43 1013.5 1013.7 0.0
30/02:00pm 10.5 -3.5 2.4 57 3.5 N 65 82 35 44 1013.2 1013.4 0.0
30/01:30pm 10.8 -1.0 2.5 56 3.6 N 54 72 29 39 1014.1 1014.3 0.0
30/01:09pm 10.6 -1.3 2.2 56 3.6 N 54 72 29 39 1014.8 1015.0 0.0
30/01:00pm 10.4 -1.9 1.9 55 3.6 N 56 70 30 38 1015.0 1015.2 0.0
30/12:30pm 10.4 0.9 1.9 55 3.6 NNW 41 59 22 32 1016.9 1017.1 0.0
30/12:00pm 10.5 1.0 2.0 55 3.6 N 41 63 22 34 1017.3 1017.5 0.0
30/11:30am 10.0 1.8 2.5 59 3.2 N 35 54 19 29 1018.5 1018.7 0.0
30/11:00am 9.8 2.6 2.8 61 3.0 NNE 30 48 16 26 1019.1 1019.3 0.0
30/10:37am 9.9 0.9 2.4 59 3.2 N 39 57 21 31 1019.4 1019.6 0.0
30/10:30am 10.1 0.2 2.6 59 3.2 N 44 59 24 32 1019.9 1020.1 0.0
30/10:00am 9.5 0.9 2.7 62 2.9 NNE 37 56 20 30 1020.3 1020.5 0.0
30/09:52am 9.4 1.6 3.1 65 2.7 N 33 52 18 28 1020.7 1020.9 0.0
30/09:30am 8.9 1.8 3.3 68 2.4 N 30 41 16 22 1020.9 1021.1 0.0
30/09:00am 8.9 1.7 2.8 65 2.6 NNE 30 39 16 21 1020.6 1020.8 0.0
30/08:47am 8.4 1.1 2.7 67 2.4 NNE 30 48 16 26 1020.7 1020.9 0.0
30/08:30am 7.8 -0.8 2.8 70 2.1 NNE 37 50 20 27 1020.5 1020.7 0.0
30/08:00am 7.7 -4.2 2.4 69 2.2 N 54 65 29 35 1020.1 1020.3 0.0
30/07:34am 7.8 -3.7 2.5 69 2.2 N 52 70 28 38 1020.6 1020.8 0.0
30/07:30am 7.9 -4.3 2.7 69 2.2 N 56 70 30 38 1020.6 1020.8 0.0
30/07:00am 7.1 -3.9 2.8 74 1.8 N 50 61 27 33 1020.0 1020.2 0.0
30/06:30am 6.9 -4.1 2.8 75 1.7 N 50 63 27 34 1020.3 1020.5 0.0
30/06:00am 7.3 -3.0 2.8 73 1.9 N 46 59 25 32 1020.8 1021.0 0.0
30/05:30am 7.5 -2.8 2.7 71 2.0 N 46 61 25 33 1021.0 1021.2 0.0
30/05:00am 7.1 -3.1 3.1 76 1.7 N 46 57 25 31 1021.5 1021.7 0.0
30/04:50am 7.5 -2.4 2.7 71 2.0 N 44 63 24 34 1021.5 1021.7 0.0
30/04:30am 7.0 -2.7 2.9 75 1.7 N 43 50 23 27 1021.9 1022.1 0.0
30/04:00am 7.1 -1.8 3.3 77 1.6 N 39 52 21 28 1022.3 1022.5 0.0
30/03:30am 7.1 -2.6 3.1 76 1.7 N 43 54 23 29 1022.7 1022.9 0.0
30/03:00am 7.6 -1.7 2.8 71 2.0 N 41 54 22 29 1022.7 1022.9 0.0
30/02:30am 6.8 -1.7 3.0 77 1.6 N 37 48 20 26 1023.3 1023.5 0.0
30/02:00am 7.2 0.4 2.9 74 1.8 N 28 35 15 19 1024.4 1024.6 0.0
30/01:30am 7.3 1.3 3.3 76 1.7 N 24 32 13 17 1025.0 1025.2 0.0
30/01:00am 7.0 1.9 3.2 77 1.6 N 19 28 10 15 1025.4 1025.7 0.0
30/12:30am 6.8 1.2 3.7 80 1.3 N 22 28 12 15 1025.7 1026.0 0.0
30/12:00am 7.5 2.0 3.8 77 1.6 NNE 22 28 12 15 1026.2 1026.5 0.0
 
Date/Time
EST
Temp
°C
App
Temp
°C
Dew
Point
Rel
Hum
%
Delta-T
°C
Wind Press
QNH
hPa
Press
MSL
hPa
Rain
since 9 am
mm
Dir
 
Spd
km/h
Gust
km/h
Spd
kts
Gust
kts
29/11:30pm 7.7 2.7 3.7 76 1.7 N 19 28 10 15 1026.7 1027.0 0.0
29/11:00pm 7.5 2.4 4.0 78 1.5 N 20 28 11 15 1027.2 1027.4 0.0
29/10:30pm 8.1 3.1 3.7 74 1.9 N 19 30 10 16 1027.2 1027.4 0.0
29/10:00pm 8.4 1.8 4.0 74 1.9 NNE 28 43 15 23 1027.3 1027.5 0.0
29/09:30pm 8.5 3.7 4.6 76 1.7 N 19 26 10 14 1027.7 1027.9 0.0
29/09:00pm 8.8 4.0 4.7 75 1.8 N 19 28 10 15 1027.8 1028.0 0.0
29/08:30pm 9.0 4.2 4.7 74 1.9 N 19 30 10 16 1028.0 1028.2 0.0
29/08:00pm 9.3 3.2 4.8 73 2.0 N 26 35 14 19 1027.8 1028.0 0.0
29/07:30pm 9.4 4.0 4.7 72 2.1 N 22 28 12 15 1028.4 1028.6 0.0
29/07:00pm 9.3 4.0 4.8 73 2.0 N 22 37 12 20 1028.3 1028.5 0.0
29/06:30pm 9.6 4.2 4.4 70 2.3 N 22 30 12 16 1028.2 1028.4 0.0
29/06:00pm 9.8 3.9 4.1 67 2.5 N 24 35 13 19 1027.9 1028.1 0.0

Other Formats:

Comma delimited format used in spreadsheet applications
http://www.bom.gov.au/fwo/IDV60801/IDV60801.94866.axf

JavaScript Object Notation format (JSON) in row-major order
http://www.bom.gov.au/fwo/IDV60801/IDV60801.94866.json